Flight Track Log - Related Links

Times and Time Zones

All times are in EDT time to prevent confusion due to time zone crossing. See the SKW5500 flight status page for this flight to view local times or setup timezone preferences in your user account.

Time Position Orientation Groundspeed Altitude Reporting Facility
EDT Latitude Longitude Course Direction KTS km/h feet Rate Location/Type
Sun 05:47:00 PM 39.7058 -105.2250 250° West  Level Estimated
Sun 05:48:00 PM 39.6743 -105.3351 250° West  Level Estimated
Sun 05:49:00 PM 39.6427 -105.4451 250° West  Level Estimated
Sun 05:50:00 PM 39.6110 -105.5549 250° West  Level Estimated
Sun 05:51:00 PM 39.5793 -105.6647 249° West  Level Estimated
Sun 05:52:00 PM 39.5474 -105.7744 249° West  Level Estimated
Sun 05:53:00 PM 39.5154 -105.8839 249° West  Level Estimated
Sun 05:54:00 PM 39.4832 -105.9934 249° West  Level Estimated
Sun 05:55:00 PM 39.4510 -106.1027 249° West  Level Estimated
Sun 05:56:00 PM 39.4187 -106.2120 249° West  Level Estimated
Sun 05:57:00 PM 39.3863 -106.3212 249° West  Level Estimated
Sun 05:58:00 PM 39.3538 -106.4302 249° West  Level Estimated
Sun 05:59:00 PM 39.3212 -106.5392 249° West  Level Estimated
Sun 06:00:00 PM 39.2885 -106.6480 249° West  Level Estimated
Sun 06:01:00 PM 39.2556 -106.7568 249° West  Level Estimated
Sun 06:02:00 PM 39.2227 -106.8654 249° West  Level Estimated
Sun 06:03:00 PM 39.2219 -106.8682 249° West  Level Estimated
Sun 06:04:00 PM 39.2219 -106.8682 239° Southwest  Level Estimated
Sun 06:05:00 PM 39.2219 -106.8682 239° Southwest  Level Estimated
Sun 06:06:00 PM 39.2219 -106.8682 239° Southwest  Level Estimated
Sun 06:07:00 PM 39.2219 -106.8682 239° Southwest  Level Estimated
Sun 06:08:00 PM 39.2219 -106.8682 239° Southwest  Level Estimated
Sun 06:09:00 PM 39.2219 -106.8682 239° Southwest  Level Estimated

Login

Don't have an account? Register now (free) for customized features, flight alerts, and more!